Private Wetterstation Sandau
Wetterdaten: Freitag, 28.12.2012
Datum Zeit Temp. A. Feuchte A. Luftdruck Regen Wind Richtung Richtung Taupunkt Windchill
28.12.2012 00:01 1,6 C 76 % 1012,7 hPa 0,0 l/m 14,4 km/h (3 Bft) N 360 -2,2 C -2,3 C
28.12.2012 00:06 1,4 C 76 % 1012,9 hPa 0,0 l/m 13,3 km/h (3 Bft) N-NO 22 -2,4 C -2,4 C
28.12.2012 00:11 1,3 C 77 % 1013,0 hPa 0,0 l/m 12,2 km/h (2 Bft) N-NO 22 -2,3 C -2,3 C
28.12.2012 00:16 1,3 C 76 % 1013,2 hPa 0,0 l/m 15,8 km/h (3 Bft) N-NO 22 -2,5 C -3,0 C
28.12.2012 00:21 1,2 C 76 % 1013,3 hPa 0,0 l/m 12,2 km/h (2 Bft) N-NO 22 -2,5 C -2,4 C
28.12.2012 00:26 1,1 C 77 % 1013,3 hPa 0,0 l/m 7,6 km/h (2 Bft) N 360 -2,5 C -1,3 C
28.12.2012 00:31 1,0 C 76 % 1013,4 hPa 0,0 l/m 9,7 km/h (2 Bft) N-NO 22 -2,7 C -2,0 C
28.12.2012 00:36 0,9 C 77 % 1013,6 hPa 0,0 l/m 5,0 km/h (1 Bft) N 360 -2,7 C -0,6 C
28.12.2012 00:41 0,8 C 77 % 1013,7 hPa 0,0 l/m 5,8 km/h (2 Bft) N 360 -2,8 C -1,0 C
28.12.2012 00:46 0,7 C 77 % 1013,8 hPa 0,0 l/m 6,5 km/h (2 Bft) N 360 -2,9 C -1,4 C
28.12.2012 00:51 0,6 C 78 % 1014,0 hPa 0,0 l/m 5,8 km/h (2 Bft) N 360 -2,8 C -1,3 C
28.12.2012 00:56 0,5 C 78 % 1014,4 hPa 0,0 l/m 2,9 km/h (1 Bft) NO 45 -2,9 C 0,5 C
28.12.2012 01:01 0,4 C 78 % 1014,4 hPa 0,0 l/m 10,1 km/h (2 Bft) N-NO 22 -3,0 C -2,9 C
28.12.2012 01:06 0,4 C 78 % 1014,4 hPa 0,0 l/m 4,7 km/h (1 Bft) N 360 -3,0 C -1,0 C
28.12.2012 01:11 0,3 C 78 % 1014,6 hPa 0,0 l/m 10,8 km/h (2 Bft) N-NO 22 -3,1 C -3,2 C
28.12.2012 01:16 0,2 C 78 % 1014,9 hPa 0,0 l/m 7,6 km/h (2 Bft) N-NO 22 -3,2 C -2,4 C
28.12.2012 01:21 0,2 C 78 % 1014,9 hPa 0,0 l/m 4,7 km/h (1 Bft) N-NO 22 -3,2 C -1,2 C
28.12.2012 01:26 0,1 C 78 % 1015,0 hPa 0,0 l/m 3,2 km/h (1 Bft) N-NO 22 -3,3 C 0,1 C
28.12.2012 01:31 0,1 C 78 % 1015,1 hPa 0,0 l/m 7,2 km/h (2 Bft) N-NO 22 -3,3 C -2,4 C
28.12.2012 01:36 0,1 C 79 % 1015,3 hPa 0,0 l/m 6,1 km/h (2 Bft) N-NO 22 -3,1 C -1,9 C
28.12.2012 01:41 0,0 C 79 % 1015,5 hPa 0,0 l/m 3,2 km/h (1 Bft) NO 45 -3,2 C 0,0 C
28.12.2012 01:46 -0,1 C 79 % 1015,7 hPa 0,0 l/m 4,7 km/h (1 Bft) N-NW 337 -3,3 C -1,6 C
28.12.2012 01:51 -0,2 C 79 % 1015,7 hPa 0,0 l/m 2,5 km/h (1 Bft) N-NW 337 -3,4 C -0,2 C
28.12.2012 01:56 -0,2 C 80 % 1015,7 hPa 0,0 l/m 0,0 km/h (0 Bft) N-NW 337 -3,2 C -0,2 C
28.12.2012 02:01 -0,4 C 80 % 1015,8 hPa 0,0 l/m 3,2 km/h (1 Bft) N 360 -3,4 C -0,4 C
28.12.2012 02:06 -0,4 C 81 % 1016,3 hPa 0,0 l/m 2,5 km/h (1 Bft) N-NW 337 -3,3 C -0,4 C
28.12.2012 02:11 -0,5 C 81 % 1016,5 hPa 0,0 l/m 2,5 km/h (1 Bft) N-NW 337 -3,3 C -0,5 C
28.12.2012 02:16 -0,6 C 81 % 1016,8 hPa 0,0 l/m 3,2 km/h (1 Bft) N-NW 337 -3,4 C -0,6 C
28.12.2012 02:21 -0,7 C 82 % 1016,8 hPa 0,0 l/m 1,8 km/h (1 Bft) N-NW 337 -3,4 C -0,7 C
28.12.2012 02:26 -0,7 C 82 % 1016,8 hPa 0,0 l/m 2,2 km/h (1 Bft) W-NW 292 -3,4 C -0,7 C
28.12.2012 02:31 -0,7 C 82 % 1017,1 hPa 0,0 l/m 4,3 km/h (1 Bft) N-NW 337 -3,4 C -0,7 C
28.12.2012 02:36 -0,8 C 83 % 1017,3 hPa 0,0 l/m 0,0 km/h (0 Bft) N-NW 337 -3,3 C -0,8 C
28.12.2012 02:41 -0,8 C 83 % 1017,6 hPa 0,0 l/m 5,0 km/h (1 Bft) N-NO 22 -3,3 C -2,5 C
28.12.2012 02:46 -0,9 C 83 % 1017,6 hPa 0,0 l/m 2,5 km/h (1 Bft) N 360 -3,4 C -0,9 C
28.12.2012 02:51 -0,9 C 84 % 1017,6 hPa 0,0 l/m 2,2 km/h (1 Bft) N 360 -3,3 C -0,9 C
28.12.2012 02:56 -0,9 C 84 % 1017,6 hPa 0,0 l/m 2,9 km/h (1 Bft) N 360 -3,3 C -0,9 C
28.12.2012 03:01 -1,0 C 84 % 1017,8 hPa 0,0 l/m 2,2 km/h (1 Bft) N-NW 337 -3,4 C -1,0 C
28.12.2012 03:06 -1,0 C 84 % 1018,2 hPa 0,0 l/m 10,4 km/h (2 Bft) NW 315 -3,4 C -4,6 C
28.12.2012 03:11 -1,1 C 84 % 1018,5 hPa 0,0 l/m 5,8 km/h (2 Bft) NW 315 -3,4 C -3,2 C
28.12.2012 03:16 -1,1 C 84 % 1018,6 hPa 0,0 l/m 5,4 km/h (1 Bft) NW 315 -3,4 C -3,0 C
28.12.2012 03:21 -1,1 C 84 % 1018,8 hPa 0,0 l/m 9,4 km/h (2 Bft) NW 315 -3,4 C -4,5 C
28.12.2012 03:26 -1,1 C 84 % 1018,8 hPa 0,0 l/m 4,7 km/h (1 Bft) W-NW 292 -3,4 C -2,7 C
28.12.2012 03:31 -1,1 C 84 % 1019,0 hPa 0,0 l/m 12,6 km/h (3 Bft) N-NW 337 -3,4 C -5,3 C
28.12.2012 03:36 -1,1 C 84 % 1019,3 hPa 0,0 l/m 2,5 km/h (1 Bft) W-NW 292 -3,4 C -1,1 C
28.12.2012 03:41 -1,1 C 84 % 1019,6 hPa 0,0 l/m 4,3 km/h (1 Bft) N-NW 337 -3,4 C -1,1 C
28.12.2012 03:46 -1,2 C 84 % 1019,7 hPa 0,0 l/m 2,5 km/h (1 Bft) N 360 -3,5 C -1,2 C
28.12.2012 03:51 -1,2 C 84 % 1020,0 hPa 0,0 l/m 2,5 km/h (1 Bft) W-NW 292 -3,5 C -1,2 C
28.12.2012 03:56 -1,2 C 84 % 1019,9 hPa 0,0 l/m 5,8 km/h (2 Bft) N-NW 337 -3,5 C -3,3 C
28.12.2012 04:01 -1,4 C 84 % 1020,1 hPa 0,0 l/m 5,0 km/h (1 Bft) N-NW 337 -3,7 C -3,2 C
28.12.2012 04:06 -1,4 C 85 % 1020,5 hPa 0,0 l/m 3,2 km/h (1 Bft) W-NW 292 -3,6 C -1,4 C
28.12.2012 04:11 -1,4 C 85 % 1020,6 hPa 0,0 l/m 2,2 km/h (1 Bft) N-NW 337 -3,6 C -1,4 C
28.12.2012 04:16 -1,4 C 85 % 1020,8 hPa 0,0 l/m 6,5 km/h (2 Bft) NW 315 -3,6 C -3,8 C
28.12.2012 04:21 -1,4 C 85 % 1020,9 hPa 0,0 l/m 8,6 km/h (2 Bft) N-NW 337 -3,6 C -4,6 C
28.12.2012 04:26 -1,5 C 85 % 1021,0 hPa 0,0 l/m 4,0 km/h (1 Bft) N-NW 337 -3,7 C -1,5 C
28.12.2012 04:31 -1,5 C 85 % 1021,1 hPa 0,0 l/m 8,6 km/h (2 Bft) NW 315 -3,7 C -4,7 C
28.12.2012 04:36 -1,5 C 85 % 1021,2 hPa 0,0 l/m 5,0 km/h (1 Bft) NW 315 -3,7 C -3,3 C
28.12.2012 04:41 -1,6 C 85 % 1021,2 hPa 0,0 l/m 5,4 km/h (1 Bft) NW 315 -3,8 C -3,6 C
28.12.2012 04:46 -1,6 C 85 % 1021,4 hPa 0,0 l/m 4,7 km/h (1 Bft) W-NW 292 -3,8 C -3,3 C
28.12.2012 04:51 -1,6 C 85 % 1021,4 hPa 0,0 l/m 5,4 km/h (1 Bft) NW 315 -3,8 C -3,6 C
28.12.2012 04:56 -1,7 C 85 % 1021,4 hPa 0,0 l/m 0,0 km/h (0 Bft) NW 315 -3,9 C -1,7 C
28.12.2012 05:01 -1,7 C 85 % 1021,6 hPa 0,0 l/m 3,2 km/h (1 Bft) NW 315 -3,9 C -1,7 C
28.12.2012 05:06 -1,8 C 85 % 1021,7 hPa 0,0 l/m 4,7 km/h (1 Bft) W-NW 292 -4,0 C -3,5 C
28.12.2012 05:11 -1,8 C 86 % 1022,0 hPa 0,0 l/m 11,2 km/h (2 Bft) NW 315 -3,8 C -5,8 C
28.12.2012 05:16 -1,8 C 86 % 1021,9 hPa 0,0 l/m 12,2 km/h (2 Bft) NW 315 -3,8 C -6,0 C
28.12.2012 05:21 -1,8 C 86 % 1021,9 hPa 0,0 l/m 5,0 km/h (1 Bft) N-NW 337 -3,8 C -3,6 C
28.12.2012 05:26 -1,9 C 86 % 1022,0 hPa 0,0 l/m 1,4 km/h (1 Bft) NW 315 -3,9 C -1,9 C
28.12.2012 05:31 -1,9 C 86 % 1022,2 hPa 0,0 l/m 4,0 km/h (1 Bft) W-NW 292 -3,9 C -1,9 C
28.12.2012 05:36 -1,9 C 86 % 1022,3 hPa 0,0 l/m 5,0 km/h (1 Bft) W-NW 292 -3,9 C -3,7 C
28.12.2012 05:41 -1,9 C 86 % 1022,3 hPa 0,0 l/m 6,1 km/h (2 Bft) NW 315 -3,9 C -4,3 C
28.12.2012 05:46 -1,9 C 86 % 1022,4 hPa 0,0 l/m 6,1 km/h (2 Bft) NW 315 -3,9 C -4,3 C
28.12.2012 05:51 -2,1 C 86 % 1022,4 hPa 0,0 l/m 2,5 km/h (1 Bft) NW 315 -4,1 C -2,1 C
28.12.2012 05:56 -2,1 C 86 % 1022,5 hPa 0,0 l/m 4,3 km/h (1 Bft) NW 315 -4,1 C -2,1 C
28.12.2012 06:01 -2,1 C 86 % 1022,5 hPa 0,0 l/m 4,7 km/h (1 Bft) W-NW 292 -4,1 C -3,8 C
28.12.2012 06:06 -2,2 C 86 % 1022,9 hPa 0,0 l/m 2,2 km/h (1 Bft) W-NW 292 -4,2 C -2,2 C
28.12.2012 06:11 -2,2 C 86 % 1022,9 hPa 0,0 l/m 4,7 km/h (1 Bft) NW 315 -4,2 C -3,9 C
28.12.2012 06:16 -2,2 C 86 % 1023,2 hPa 0,0 l/m 2,5 km/h (1 Bft) W 270 -4,2 C -2,2 C
28.12.2012 06:21 -2,3 C 86 % 1023,3 hPa 0,0 l/m 4,3 km/h (1 Bft) W-NW 292 -4,3 C -2,3 C
28.12.2012 06:26 -2,4 C 86 % 1023,5 hPa 0,0 l/m 7,9 km/h (2 Bft) W-NW 292 -4,4 C -5,5 C
28.12.2012 06:31 -2,4 C 86 % 1023,6 hPa 0,0 l/m 7,9 km/h (2 Bft) W-NW 292 -4,4 C -5,5 C
28.12.2012 06:36 -2,4 C 87 % 1023,6 hPa 0,0 l/m 4,0 km/h (1 Bft) W-NW 292 -4,3 C -2,4 C
28.12.2012 06:41 -2,4 C 87 % 1023,6 hPa 0,0 l/m 0,0 km/h (0 Bft) W-NW 292 -4,3 C -2,4 C
28.12.2012 06:46 -2,4 C 87 % 1023,5 hPa 0,0 l/m 0,0 km/h (0 Bft) W-NW 292 -4,3 C -2,4 C
28.12.2012 06:51 -2,5 C 87 % 1023,8 hPa 0,0 l/m 6,5 km/h (2 Bft) W-NW 292 -4,4 C -5,1 C
28.12.2012 06:56 -2,5 C 87 % 1024,0 hPa 0,0 l/m 2,9 km/h (1 Bft) NW 315 -4,4 C -2,5 C
28.12.2012 07:01 -2,6 C 86 % 1024,0 hPa 0,0 l/m 4,7 km/h (1 Bft) W-NW 292 -4,6 C -4,4 C
28.12.2012 07:06 -2,6 C 86 % 1024,2 hPa 0,0 l/m 3,6 km/h (1 Bft) W-NW 292 -4,6 C -2,6 C
28.12.2012 07:11 -2,6 C 86 % 1024,4 hPa 0,0 l/m 7,2 km/h (2 Bft) W-NW 292 -4,6 C -5,5 C
28.12.2012 07:16 -2,7 C 86 % 1024,1 hPa 0,0 l/m 5,0 km/h (1 Bft) W-NW 292 -4,7 C -4,7 C
28.12.2012 07:21 -2,7 C 86 % 1024,3 hPa 0,0 l/m 4,0 km/h (1 Bft) W 270 -4,7 C -2,7 C
28.12.2012 07:26 -2,7 C 86 % 1024,3 hPa 0,0 l/m 0,0 km/h (0 Bft) W-NW 292 -4,7 C -2,7 C
28.12.2012 07:31 -2,7 C 86 % 1024,6 hPa 0,0 l/m 5,0 km/h (1 Bft) W-NW 292 -4,7 C -4,7 C
28.12.2012 07:36 -2,7 C 86 % 1024,6 hPa 0,0 l/m 3,2 km/h (1 Bft) W-SW 247 -4,7 C -2,7 C
28.12.2012 07:41 -2,7 C 86 % 1024,7 hPa 0,0 l/m 3,6 km/h (1 Bft) W-SW 247 -4,7 C -2,7 C
28.12.2012 07:46 -2,8 C 86 % 1024,8 hPa 0,0 l/m 1,4 km/h (1 Bft) W-SW 247 -4,8 C -2,8 C
28.12.2012 07:51 -2,8 C 86 % 1025,0 hPa 0,0 l/m 1,4 km/h (1 Bft) W-SW 247 -4,8 C -2,8 C
28.12.2012 07:56 -2,8 C 86 % 1025,0 hPa 0,0 l/m 0,0 km/h (0 Bft) W-SW 247 -4,8 C -2,8 C
28.12.2012 08:01 -2,9 C 86 % 1025,2 hPa 0,0 l/m 2,5 km/h (1 Bft) W-SW 247 -4,9 C -2,9 C
28.12.2012 08:06 -3,0 C 86 % 1025,3 hPa 0,0 l/m 0,0 km/h (0 Bft) W-SW 247 -5,0 C -3,0 C
28.12.2012 08:11 -3,1 C 86 % 1025,5 hPa 0,0 l/m 1,8 km/h (1 Bft) W-SW 247 -5,1 C -3,1 C
28.12.2012 08:16 -3,1 C 86 % 1025,4 hPa 0,0 l/m 1,8 km/h (1 Bft) W-SW 247 -5,1 C -3,1 C
28.12.2012 08:21 -3,1 C 87 % 1025,7 hPa 0,0 l/m 2,2 km/h (1 Bft) W-SW 247 -4,9 C -3,1 C
28.12.2012 08:26 -3,1 C 87 % 1025,8 hPa 0,0 l/m 4,0 km/h (1 Bft) W-SW 247 -4,9 C -3,1 C
28.12.2012 08:31 -3,1 C 87 % 1025,9 hPa 0,0 l/m 2,9 km/h (1 Bft) W-SW 247 -4,9 C -3,1 C
28.12.2012 08:36 -3,1 C 87 % 1026,1 hPa 0,0 l/m 5,0 km/h (1 Bft) W-SW 247 -4,9 C -5,1 C
28.12.2012 08:41 -3,1 C 87 % 1026,1 hPa 0,0 l/m 0,0 km/h (0 Bft) W-SW 247 -4,9 C -3,1 C
28.12.2012 08:46 -3,1 C 87 % 1026,2 hPa 0,0 l/m 5,0 km/h (1 Bft) W-SW 247 -4,9 C -5,1 C
28.12.2012 08:51 -3,1 C 87 % 1026,2 hPa 0,0 l/m 4,7 km/h (1 Bft) W-SW 247 -4,9 C -4,9 C
28.12.2012 08:56 -3,0 C 87 % 1026,3 hPa 0,0 l/m 0,0 km/h (0 Bft) W-SW 247 -4,9 C -3,0 C
28.12.2012 09:01 -2,9 C 87 % 1026,5 hPa 0,0 l/m 3,6 km/h (1 Bft) W-SW 247 -4,8 C -2,9 C
28.12.2012 09:06 -2,9 C 88 % 1026,5 hPa 0,0 l/m 6,5 km/h (2 Bft) W-SW 247 -4,6 C -5,6 C
28.12.2012 09:11 -2,8 C 88 % 1026,9 hPa 0,0 l/m 5,0 km/h (1 Bft) W-SW 247 -4,5 C -4,8 C
28.12.2012 09:16 -2,8 C 88 % 1026,8 hPa 0,0 l/m 6,1 km/h (2 Bft) W-SW 247 -4,5 C -5,3 C
28.12.2012 09:21 -2,7 C 88 % 1026,9 hPa 0,0 l/m 5,8 km/h (2 Bft) W-SW 247 -4,4 C -5,0 C
28.12.2012 09:26 -2,7 C 88 % 1026,9 hPa 0,0 l/m 6,1 km/h (2 Bft) W-SW 247 -4,4 C -5,2 C
28.12.2012 09:31 -2,6 C 88 % 1027,0 hPa 0,0 l/m 9,4 km/h (2 Bft) W-SW 247 -4,3 C -6,2 C
28.12.2012 09:36 -2,6 C 88 % 1026,9 hPa 0,0 l/m 5,8 km/h (2 Bft) W 270 -4,3 C -4,9 C
28.12.2012 09:41 -2,6 C 88 % 1027,2 hPa 0,0 l/m 2,5 km/h (1 Bft) W-SW 247 -4,3 C -2,6 C
28.12.2012 09:46 -2,5 C 88 % 1027,0 hPa 0,0 l/m 1,8 km/h (1 Bft) W-SW 247 -4,2 C -2,5 C
28.12.2012 09:51 -2,4 C 88 % 1027,3 hPa 0,0 l/m 5,4 km/h (1 Bft) SW 225 -4,1 C -4,5 C
28.12.2012 09:56 -2,4 C 87 % 1027,4 hPa 0,0 l/m 6,5 km/h (2 Bft) W-SW 247 -4,3 C -5,0 C
28.12.2012 10:01 -2,3 C 87 % 1027,5 hPa 0,0 l/m 2,5 km/h (1 Bft) S-SW 202 -4,2 C -2,3 C
28.12.2012 10:06 -2,2 C 87 % 1027,5 hPa 0,0 l/m 5,0 km/h (1 Bft) W 270 -4,1 C -4,1 C
28.12.2012 10:11 -2,1 C 87 % 1027,3 hPa 0,0 l/m 4,7 km/h (1 Bft) W-SW 247 -4,0 C -3,8 C
28.12.2012 10:16 -2,1 C 87 % 1027,4 hPa 0,0 l/m 2,5 km/h (1 Bft) SW 225 -4,0 C -2,1 C
28.12.2012 10:21 -1,9 C 87 % 1027,8 hPa 0,0 l/m 2,5 km/h (1 Bft) W-SW 247 -3,8 C -1,9 C
28.12.2012 10:26 -1,9 C 87 % 1027,9 hPa 0,0 l/m 3,2 km/h (1 Bft) S 180 -3,8 C -1,9 C
28.12.2012 10:31 -1,8 C 87 % 1028,1 hPa 0,0 l/m 5,8 km/h (2 Bft) S-SW 202 -3,7 C -4,0 C
28.12.2012 10:36 -1,7 C 87 % 1028,1 hPa 0,0 l/m 4,3 km/h (1 Bft) SW 225 -3,6 C -1,7 C
28.12.2012 10:41 -1,6 C 87 % 1028,2 hPa 0,0 l/m 4,7 km/h (1 Bft) W-SW 247 -3,5 C -3,3 C
28.12.2012 10:46 -1,5 C 86 % 1028,3 hPa 0,0 l/m 0,0 km/h (0 Bft) S-SW 202 -3,5 C -1,5 C
28.12.2012 10:51 -1,4 C 86 % 1028,2 hPa 0,0 l/m 5,8 km/h (2 Bft) S-SW 202 -3,4 C -3,5 C
28.12.2012 10:56 -1,3 C 86 % 1028,2 hPa 0,0 l/m 4,7 km/h (1 Bft) W 270 -3,3 C -2,9 C
28.12.2012 11:01 -1,2 C 85 % 1028,1 hPa 0,0 l/m 6,8 km/h (2 Bft) SW 225 -3,4 C -3,7 C
28.12.2012 11:06 -1,1 C 85 % 1028,4 hPa 0,0 l/m 3,2 km/h (1 Bft) SW 225 -3,3 C -1,1 C
28.12.2012 11:11 -1,1 C 85 % 1028,3 hPa 0,0 l/m 0,0 km/h (0 Bft) SW 225 -3,3 C -1,1 C
28.12.2012 11:16 -1,0 C 85 % 1028,5 hPa 0,0 l/m 5,0 km/h (1 Bft) S-SW 202 -3,2 C -2,7 C
28.12.2012 11:21 -0,8 C 85 % 1028,3 hPa 0,0 l/m 4,0 km/h (1 Bft) S-SW 202 -3,0 C -0,8 C
28.12.2012 11:26 -0,7 C 85 % 1028,2 hPa 0,0 l/m 4,3 km/h (1 Bft) S-SW 202 -2,9 C -0,7 C
28.12.2012 11:31 -0,7 C 84 % 1028,2 hPa 0,0 l/m 8,3 km/h (2 Bft) W-SW 247 -3,1 C -3,7 C
28.12.2012 11:36 -0,6 C 84 % 1028,3 hPa 0,0 l/m 3,6 km/h (1 Bft) SW 225 -3,0 C -0,6 C
28.12.2012 11:41 -0,6 C 84 % 1028,4 hPa 0,0 l/m 6,1 km/h (2 Bft) S-SW 202 -3,0 C -2,8 C
28.12.2012 11:46 -0,5 C 84 % 1028,3 hPa 0,0 l/m 5,4 km/h (1 Bft) S-SW 202 -2,9 C -2,3 C
28.12.2012 11:51 -0,4 C 83 % 1028,4 hPa 0,0 l/m 6,5 km/h (2 Bft) SW 225 -2,9 C -2,7 C
28.12.2012 11:56 -0,2 C 83 % 1028,4 hPa 0,0 l/m 5,8 km/h (2 Bft) W-NW 292 -2,7 C -2,2 C
28.12.2012 12:01 -0,2 C 83 % 1028,2 hPa 0,0 l/m 8,3 km/h (2 Bft) W-SW 247 -2,7 C -3,1 C
28.12.2012 12:06 -0,1 C 83 % 1028,4 hPa 0,0 l/m 5,0 km/h (1 Bft) W-SW 247 -2,6 C -1,7 C
28.12.2012 12:11 -0,1 C 82 % 1028,5 hPa 0,0 l/m 9,4 km/h (2 Bft) W-SW 247 -2,8 C -3,3 C
28.12.2012 12:16 0,1 C 82 % 1028,5 hPa 0,0 l/m 9,0 km/h (2 Bft) W-SW 247 -2,6 C -2,9 C
28.12.2012 12:21 0,2 C 81 % 1028,4 hPa 0,0 l/m 3,6 km/h (1 Bft) SW 225 -2,7 C 0,2 C
28.12.2012 12:26 0,3 C 81 % 1028,4 hPa 0,0 l/m 11,2 km/h (2 Bft) W 270 -2,6 C -3,3 C
28.12.2012 12:31 0,4 C 80 % 1028,4 hPa 0,0 l/m 2,5 km/h (1 Bft) W-SW 247 -2,6 C 0,4 C
28.12.2012 12:36 0,4 C 80 % 1028,6 hPa 0,0 l/m 3,6 km/h (1 Bft) SW 225 -2,6 C 0,4 C
28.12.2012 12:41 0,5 C 80 % 1028,6 hPa 0,0 l/m 4,0 km/h (1 Bft) S-SW 202 -2,5 C 0,5 C
28.12.2012 12:46 0,6 C 80 % 1028,7 hPa 0,0 l/m 4,3 km/h (1 Bft) W-SW 247 -2,4 C 0,6 C
28.12.2012 12:51 0,7 C 79 % 1028,6 hPa 0,0 l/m 3,6 km/h (1 Bft) SW 225 -2,5 C 0,7 C
28.12.2012 12:56 0,8 C 79 % 1028,4 hPa 0,0 l/m 8,6 km/h (2 Bft) W-SW 247 -2,4 C -2,0 C
28.12.2012 13:01 0,8 C 79 % 1028,3 hPa 0,0 l/m 4,0 km/h (1 Bft) S 180 -2,4 C 0,8 C
28.12.2012 13:06 0,9 C 79 % 1028,4 hPa 0,0 l/m 7,2 km/h (2 Bft) S-SW 202 -2,3 C -1,4 C
28.12.2012 13:11 0,9 C 78 % 1028,4 hPa 0,0 l/m 5,0 km/h (1 Bft) S 180 -2,5 C -0,6 C
28.12.2012 13:16 1,0 C 77 % 1028,4 hPa 0,0 l/m 5,4 km/h (1 Bft) SW 225 -2,6 C -0,6 C
28.12.2012 13:21 1,0 C 76 % 1028,5 hPa 0,0 l/m 4,0 km/h (1 Bft) S-SW 202 -2,7 C 1,0 C
28.12.2012 13:26 1,0 C 76 % 1028,5 hPa 0,0 l/m 11,2 km/h (2 Bft) S-SW 202 -2,7 C -2,4 C
28.12.2012 13:31 1,2 C 76 % 1028,3 hPa 0,0 l/m 6,5 km/h (2 Bft) S 180 -2,5 C -0,8 C
28.12.2012 13:36 1,3 C 75 % 1028,3 hPa 0,0 l/m 8,6 km/h (2 Bft) SW 225 -2,6 C -1,4 C
28.12.2012 13:41 1,3 C 75 % 1028,3 hPa 0,0 l/m 6,1 km/h (2 Bft) S-SW 202 -2,6 C -0,6 C
28.12.2012 13:46 1,3 C 75 % 1028,1 hPa 0,0 l/m 9,4 km/h (2 Bft) S 180 -2,6 C -1,6 C
28.12.2012 13:51 1,3 C 75 % 1028,2 hPa 0,0 l/m 3,2 km/h (1 Bft) S-SO 157 -2,6 C 1,3 C
28.12.2012 13:56 1,3 C 75 % 1028,1 hPa 0,0 l/m 8,3 km/h (2 Bft) S-SW 202 -2,6 C -1,3 C
28.12.2012 14:01 1,2 C 75 % 1028,1 hPa 0,0 l/m 7,9 km/h (2 Bft) S-SW 202 -2,7 C -1,3 C
28.12.2012 14:06 1,0 C 75 % 1028,0 hPa 0,0 l/m 3,6 km/h (1 Bft) SW 225 -2,9 C 1,0 C
28.12.2012 14:11 0,9 C 75 % 1027,7 hPa 0,0 l/m 1,4 km/h (1 Bft) S 180 -3,0 C 0,9 C
28.12.2012 14:16 0,8 C 76 % 1027,7 hPa 0,0 l/m 7,6 km/h (2 Bft) S 180 -2,9 C -1,7 C
28.12.2012 14:21 0,7 C 76 % 1027,6 hPa 0,0 l/m 6,5 km/h (2 Bft) S-SO 157 -3,0 C -1,4 C
28.12.2012 14:26 0,6 C 76 % 1027,9 hPa 0,0 l/m 4,7 km/h (1 Bft) S-SW 202 -3,1 C -0,8 C
28.12.2012 14:31 0,5 C 77 % 1028,0 hPa 0,0 l/m 2,2 km/h (1 Bft) S-SW 202 -3,1 C 0,5 C
28.12.2012 14:36 0,5 C 77 % 1028,0 hPa 0,0 l/m 4,3 km/h (1 Bft) S-SW 202 -3,1 C 0,5 C
28.12.2012 14:41 0,4 C 77 % 1028,2 hPa 0,0 l/m 6,5 km/h (2 Bft) S-SW 202 -3,1 C -1,8 C
28.12.2012 14:46 0,4 C 77 % 1028,2 hPa 0,0 l/m 7,6 km/h (2 Bft) S-SW 202 -3,1 C -2,1 C
28.12.2012 14:51 0,4 C 77 % 1028,3 hPa 0,0 l/m 21,2 km/h (4 Bft) S-SW 202 -3,1 C -4,9 C
28.12.2012 14:56 0,4 C 77 % 1028,3 hPa 0,0 l/m 4,0 km/h (1 Bft) SW 225 -3,1 C 0,4 C
28.12.2012 15:01 0,4 C 78 % 1028,4 hPa 0,0 l/m 4,0 km/h (1 Bft) S 180 -3,0 C 0,4 C
28.12.2012 15:06 0,3 C 78 % 1028,4 hPa 0,0 l/m 4,3 km/h (1 Bft) S-SW 202 -3,1 C 0,3 C
28.12.2012 15:11 0,3 C 78 % 1028,4 hPa 0,0 l/m 4,7 km/h (1 Bft) S 180 -3,1 C -1,1 C
28.12.2012 15:16 0,3 C 78 % 1028,3 hPa 0,0 l/m 3,2 km/h (1 Bft) S-SO 157 -3,1 C 0,3 C
28.12.2012 15:21 0,2 C 78 % 1028,5 hPa 0,0 l/m 5,0 km/h (1 Bft) S 180 -3,2 C -1,4 C
28.12.2012 15:26 0,2 C 79 % 1028,6 hPa 0,0 l/m 3,2 km/h (1 Bft) S 180 -3,0 C 0,2 C
28.12.2012 15:31 0,1 C 79 % 1028,6 hPa 0,0 l/m 4,0 km/h (1 Bft) S 180 -3,1 C 0,1 C
28.12.2012 15:36 0,0 C 79 % 1028,7 hPa 0,0 l/m 7,9 km/h (2 Bft) S 180 -3,2 C -2,7 C
28.12.2012 15:41 -0,1 C 79 % 1028,6 hPa 0,0 l/m 3,6 km/h (1 Bft) S-SO 157 -3,3 C -0,1 C
28.12.2012 15:46 -0,1 C 79 % 1028,5 hPa 0,0 l/m 4,0 km/h (1 Bft) S-SO 157 -3,3 C -0,1 C
28.12.2012 15:51 -0,2 C 79 % 1028,3 hPa 0,0 l/m 4,3 km/h (1 Bft) SO 135 -3,4 C -0,2 C
28.12.2012 15:56 -0,2 C 79 % 1028,3 hPa 0,0 l/m 7,2 km/h (2 Bft) S 180 -3,4 C -2,7 C
28.12.2012 16:01 -0,3 C 79 % 1028,3 hPa 0,0 l/m 8,3 km/h (2 Bft) S-SO 157 -3,5 C -3,2 C
28.12.2012 16:06 -0,4 C 79 % 1028,1 hPa 0,0 l/m 3,6 km/h (1 Bft) SO 135 -3,6 C -0,4 C
28.12.2012 16:11 -0,4 C 79 % 1028,1 hPa 0,0 l/m 5,0 km/h (1 Bft) SO 135 -3,6 C -2,0 C
28.12.2012 16:16 -0,5 C 79 % 1028,0 hPa 0,0 l/m 6,5 km/h (2 Bft) SO 135 -3,7 C -2,8 C
28.12.2012 16:21 -0,5 C 80 % 1028,0 hPa 0,0 l/m 2,9 km/h (1 Bft) SO 135 -3,5 C -0,5 C
28.12.2012 16:26 -0,6 C 80 % 1028,0 hPa 0,0 l/m 4,7 km/h (1 Bft) S 180 -3,6 C -2,1 C
28.12.2012 16:31 -0,7 C 80 % 1028,1 hPa 0,0 l/m 3,2 km/h (1 Bft) S-SO 157 -3,7 C -0,7 C
28.12.2012 16:36 -0,7 C 80 % 1028,3 hPa 0,0 l/m 4,0 km/h (1 Bft) S 180 -3,7 C -0,7 C
28.12.2012 16:41 -0,8 C 80 % 1028,2 hPa 0,0 l/m 6,1 km/h (2 Bft) S-SO 157 -3,8 C -3,0 C
28.12.2012 16:46 -0,8 C 80 % 1028,1 hPa 0,0 l/m 7,2 km/h (2 Bft) S-SO 157 -3,8 C -3,4 C
28.12.2012 16:51 -0,8 C 80 % 1028,2 hPa 0,0 l/m 7,2 km/h (2 Bft) SO 135 -3,8 C -3,4 C
28.12.2012 16:56 -0,8 C 80 % 1028,1 hPa 0,0 l/m 5,8 km/h (2 Bft) S-SO 157 -3,8 C -2,9 C
28.12.2012 17:01 -0,9 C 80 % 1028,1 hPa 0,0 l/m 4,0 km/h (1 Bft) S-SO 157 -3,9 C -0,9 C
28.12.2012 17:06 -0,9 C 80 % 1028,1 hPa 0,0 l/m 5,8 km/h (2 Bft) SO 135 -3,9 C -3,0 C
28.12.2012 17:11 -0,9 C 81 % 1028,2 hPa 0,0 l/m 4,7 km/h (1 Bft) S-SO 157 -3,7 C -2,5 C
28.12.2012 17:16 -0,9 C 81 % 1027,9 hPa 0,0 l/m 5,0 km/h (1 Bft) S-SO 157 -3,7 C -2,6 C
28.12.2012 17:21 -0,8 C 81 % 1027,9 hPa 0,0 l/m 13,0 km/h (3 Bft) S-SO 157 -3,6 C -5,0 C
28.12.2012 17:26 -0,8 C 81 % 1027,5 hPa 0,0 l/m 9,4 km/h (2 Bft) S-SW 202 -3,6 C -4,1 C
28.12.2012 17:31 -0,8 C 81 % 1027,4 hPa 0,0 l/m 15,5 km/h (3 Bft) SO 135 -3,6 C -5,5 C
28.12.2012 17:36 -0,7 C 81 % 1027,3 hPa 0,0 l/m 11,2 km/h (2 Bft) S-SO 157 -3,5 C -4,5 C
28.12.2012 17:41 -0,7 C 81 % 1027,2 hPa 0,0 l/m 7,6 km/h (2 Bft) S-SO 157 -3,5 C -3,4 C
28.12.2012 17:46 -0,7 C 81 % 1027,4 hPa 0,0 l/m 5,4 km/h (1 Bft) S-SO 157 -3,5 C -2,6 C
28.12.2012 17:51 -0,7 C 81 % 1027,3 hPa 0,0 l/m 6,8 km/h (2 Bft) S-SO 157 -3,5 C -3,1 C
28.12.2012 17:56 -0,7 C 81 % 1027,4 hPa 0,0 l/m 6,1 km/h (2 Bft) S-SO 157 -3,5 C -2,9 C
28.12.2012 18:01 -0,7 C 81 % 1027,3 hPa 0,0 l/m 5,8 km/h (2 Bft) S-SW 202 -3,5 C -2,7 C
28.12.2012 18:06 -0,7 C 81 % 1027,3 hPa 0,0 l/m 5,0 km/h (1 Bft) S-SW 202 -3,5 C -2,4 C
28.12.2012 18:11 -0,7 C 81 % 1027,3 hPa 0,0 l/m 1,8 km/h (1 Bft) S 180 -3,5 C -0,7 C
28.12.2012 18:16 -0,7 C 81 % 1027,3 hPa 0,0 l/m 9,7 km/h (2 Bft) S-SO 157 -3,5 C -4,1 C
28.12.2012 18:21 -0,8 C 81 % 1027,4 hPa 0,0 l/m 7,9 km/h (2 Bft) S-SO 157 -3,6 C -3,6 C
28.12.2012 18:26 -0,8 C 81 % 1027,2 hPa 0,0 l/m 6,1 km/h (2 Bft) S-SO 157 -3,6 C -3,0 C
28.12.2012 18:31 -0,8 C 82 % 1027,1 hPa 0,0 l/m 10,1 km/h (2 Bft) SW 225 -3,5 C -4,3 C
28.12.2012 18:36 -0,9 C 82 % 1027,0 hPa 0,0 l/m 0,0 km/h (0 Bft) S-SW 202 -3,6 C -0,9 C
28.12.2012 18:41 -0,9 C 82 % 1027,0 hPa 0,0 l/m 4,0 km/h (1 Bft) S-SO 157 -3,6 C -0,9 C
28.12.2012 18:46 -0,8 C 82 % 1026,8 hPa 0,0 l/m 6,8 km/h (2 Bft) S-SW 202 -3,5 C -3,3 C
28.12.2012 18:51 -0,9 C 82 % 1026,6 hPa 0,0 l/m 14,4 km/h (3 Bft) S 180 -3,6 C -5,4 C
28.12.2012 18:56 -0,9 C 82 % 1026,4 hPa 0,0 l/m 6,1 km/h (2 Bft) SO 135 -3,6 C -3,1 C
28.12.2012 19:01 -0,9 C 82 % 1026,3 hPa 0,0 l/m 5,8 km/h (2 Bft) SW 225 -3,6 C -3,0 C
28.12.2012 19:06 -0,9 C 83 % 1026,3 hPa 0,0 l/m 12,2 km/h (2 Bft) S-SO 157 -3,4 C -4,9 C
28.12.2012 19:11 -0,9 C 83 % 1026,2 hPa 0,0 l/m 9,0 km/h (2 Bft) S-SO 157 -3,4 C -4,1 C
28.12.2012 19:16 -0,9 C 83 % 1026,1 hPa 0,0 l/m 4,7 km/h (1 Bft) S-SO 157 -3,4 C -2,5 C
28.12.2012 19:21 -0,9 C 83 % 1026,2 hPa 0,0 l/m 6,1 km/h (2 Bft) S 180 -3,4 C -3,1 C
28.12.2012 19:26 -0,8 C 83 % 1026,2 hPa 0,0 l/m 4,3 km/h (1 Bft) S-SO 157 -3,3 C -0,8 C
28.12.2012 19:31 -0,8 C 83 % 1026,2 hPa 0,0 l/m 3,2 km/h (1 Bft) S-SO 157 -3,3 C -0,8 C
28.12.2012 19:36 -0,7 C 83 % 1026,2 hPa 0,0 l/m 7,6 km/h (2 Bft) S 180 -3,2 C -3,4 C
28.12.2012 19:41 -0,7 C 83 % 1026,3 hPa 0,0 l/m 6,1 km/h (2 Bft) S-SW 202 -3,2 C -2,9 C
28.12.2012 19:46 -0,7 C 84 % 1026,2 hPa 0,0 l/m 7,6 km/h (2 Bft) S 180 -3,1 C -3,4 C
28.12.2012 19:51 -0,6 C 84 % 1026,2 hPa 0,0 l/m 9,4 km/h (2 Bft) S-SW 202 -3,0 C -3,9 C
28.12.2012 19:56 -0,5 C 84 % 1026,1 hPa 0,0 l/m 12,2 km/h (2 Bft) S-SW 202 -2,9 C -4,5 C
28.12.2012 20:01 -0,4 C 84 % 1026,2 hPa 0,0 l/m 7,9 km/h (2 Bft) S-SW 202 -2,8 C -3,2 C
28.12.2012 20:06 -0,4 C 84 % 1026,0 hPa 0,0 l/m 3,2 km/h (1 Bft) S 180 -2,8 C -0,4 C
28.12.2012 20:11 -0,3 C 84 % 1025,8 hPa 0,0 l/m 18,0 km/h (3 Bft) S-SO 157 -2,7 C -5,3 C
28.12.2012 20:16 -0,2 C 84 % 1025,7 hPa 0,0 l/m 4,7 km/h (1 Bft) S 180 -2,6 C -1,7 C
28.12.2012 20:21 -0,1 C 84 % 1025,6 hPa 0,0 l/m 12,2 km/h (2 Bft) S-SW 202 -2,5 C -4,0 C
28.12.2012 20:26 -0,1 C 84 % 1025,8 hPa 0,0 l/m 8,3 km/h (2 Bft) S-SO 157 -2,5 C -2,9 C
28.12.2012 20:31 0,1 C 84 % 1025,6 hPa 0,0 l/m 5,4 km/h (1 Bft) S-SO 157 -2,3 C -1,7 C
28.12.2012 20:36 0,1 C 84 % 1025,6 hPa 0,0 l/m 6,1 km/h (2 Bft) S-SO 157 -2,3 C -1,9 C
28.12.2012 20:41 0,2 C 84 % 1025,6 hPa 0,0 l/m 15,5 km/h (3 Bft) W-SW 247 -2,2 C -4,3 C
28.12.2012 20:46 0,3 C 84 % 1025,5 hPa 0,0 l/m 9,4 km/h (2 Bft) S 180 -2,1 C -2,8 C
28.12.2012 20:51 0,3 C 84 % 1025,6 hPa 0,0 l/m 15,5 km/h (3 Bft) S-SW 202 -2,1 C -4,1 C
28.12.2012 20:56 0,4 C 84 % 1025,5 hPa 0,0 l/m 4,3 km/h (1 Bft) S 180 -2,0 C 0,4 C
28.12.2012 21:01 0,4 C 84 % 1025,5 hPa 0,0 l/m 11,9 km/h (2 Bft) S-SW 202 -2,0 C -3,3 C
28.12.2012 21:06 0,4 C 84 % 1025,2 hPa 0,0 l/m 3,6 km/h (1 Bft) W-NW 292 -2,0 C 0,4 C
28.12.2012 21:11 0,5 C 84 % 1025,3 hPa 0,0 l/m 6,5 km/h (2 Bft) S 180 -1,9 C -1,6 C
28.12.2012 21:16 0,6 C 84 % 1025,4 hPa 0,0 l/m 1,4 km/h (1 Bft) S 180 -1,8 C 0,6 C
28.12.2012 21:21 0,6 C 84 % 1025,4 hPa 0,0 l/m 7,6 km/h (2 Bft) SW 225 -1,8 C -1,9 C
28.12.2012 21:26 0,7 C 84 % 1025,2 hPa 0,0 l/m 10,1 km/h (2 Bft) S 180 -1,7 C -2,5 C
28.12.2012 21:31 0,8 C 84 % 1025,0 hPa 0,0 l/m 14,4 km/h (3 Bft) S-SO 157 -1,6 C -3,3 C
28.12.2012 21:36 0,9 C 84 % 1024,9 hPa 0,0 l/m 6,8 km/h (2 Bft) S-SW 202 -1,5 C -1,3 C
28.12.2012 21:41 0,9 C 84 % 1024,8 hPa 0,0 l/m 7,2 km/h (2 Bft) SO 135 -1,5 C -1,4 C
28.12.2012 21:46 1,0 C 84 % 1024,7 hPa 0,0 l/m 6,8 km/h (2 Bft) S 180 -1,4 C -1,2 C
28.12.2012 21:51 1,0 C 84 % 1024,5 hPa 0,0 l/m 9,4 km/h (2 Bft) S 180 -1,4 C -2,0 C
28.12.2012 21:56 1,1 C 84 % 1024,4 hPa 0,0 l/m 5,0 km/h (1 Bft) S-SO 157 -1,3 C -0,3 C
28.12.2012 22:01 1,1 C 84 % 1024,3 hPa 0,0 l/m 4,0 km/h (1 Bft) S-SO 157 -1,3 C 1,1 C
28.12.2012 22:06 1,1 C 84 % 1024,3 hPa 0,0 l/m 13,3 km/h (3 Bft) S-SW 202 -1,3 C -2,7 C
28.12.2012 22:11 1,2 C 84 % 1024,3 hPa 0,0 l/m 14,8 km/h (3 Bft) SO 135 -1,2 C -2,9 C
28.12.2012 22:16 1,2 C 84 % 1024,4 hPa 0,0 l/m 4,0 km/h (1 Bft) S-SO 157 -1,2 C 1,2 C
28.12.2012 22:21 1,3 C 84 % 1024,3 hPa 0,0 l/m 2,5 km/h (1 Bft) S-SW 202 -1,1 C 1,3 C
28.12.2012 22:26 1,3 C 84 % 1024,4 hPa 0,0 l/m 4,7 km/h (1 Bft) SO 135 -1,1 C 0,0 C
28.12.2012 22:31 1,3 C 84 % 1024,4 hPa 0,0 l/m 4,7 km/h (1 Bft) S-SW 202 -1,1 C 0,0 C
28.12.2012 22:36 1,3 C 84 % 1024,4 hPa 0,0 l/m 8,6 km/h (2 Bft) S-SW 202 -1,1 C -1,4 C
28.12.2012 22:41 1,3 C 84 % 1024,2 hPa 0,0 l/m 4,0 km/h (1 Bft) S-SO 157 -1,1 C 1,3 C
28.12.2012 22:46 1,3 C 84 % 1024,1 hPa 0,0 l/m 6,5 km/h (2 Bft) S 180 -1,1 C -0,7 C
28.12.2012 22:51 1,3 C 84 % 1023,9 hPa 0,0 l/m 15,1 km/h (3 Bft) S-SO 157 -1,1 C -2,8 C
28.12.2012 22:56 1,5 C 84 % 1024,0 hPa 0,0 l/m 5,4 km/h (1 Bft) S-SW 202 -0,9 C -0,1 C
28.12.2012 23:01 1,5 C 84 % 1024,0 hPa 0,0 l/m 6,5 km/h (2 Bft) S-SO 157 -0,9 C -0,5 C
28.12.2012 23:06 1,5 C 84 % 1023,8 hPa 0,0 l/m 7,2 km/h (2 Bft) SW 225 -0,9 C -0,7 C
28.12.2012 23:11 1,6 C 85 % 1023,9 hPa 0,0 l/m 9,4 km/h (2 Bft) S-SW 202 -0,6 C -1,3 C
28.12.2012 23:16 1,6 C 85 % 1023,8 hPa 0,0 l/m 7,2 km/h (2 Bft) S-SO 157 -0,6 C -0,6 C
28.12.2012 23:21 1,6 C 85 % 1023,7 hPa 0,0 l/m 4,3 km/h (1 Bft) S 180 -0,6 C 1,6 C
28.12.2012 23:26 1,7 C 85 % 1023,7 hPa 0,0 l/m 14,8 km/h (3 Bft) S-SW 202 -0,5 C -2,3 C
28.12.2012 23:31 1,8 C 85 % 1023,4 hPa 0,0 l/m 6,5 km/h (2 Bft) S-SO 157 -0,4 C -0,1 C
28.12.2012 23:36 1,8 C 85 % 1023,5 hPa 0,0 l/m 4,7 km/h (1 Bft) SO 135 -0,4 C 0,6 C
28.12.2012 23:41 1,8 C 85 % 1023,5 hPa 0,0 l/m 7,2 km/h (2 Bft) S-SO 157 -0,4 C -0,4 C
28.12.2012 23:46 1,8 C 85 % 1023,5 hPa 0,0 l/m 19,4 km/h (3 Bft) S-SO 157 -0,4 C -2,9 C
28.12.2012 23:51 1,9 C 85 % 1023,1 hPa 0,0 l/m 6,8 km/h (2 Bft) S-SO 157 -0,3 C -0,1 C
28.12.2012 23:56 1,9 C 85 % 1023,3 hPa 0,0 l/m 11,2 km/h (2 Bft) SW 225 -0,3 C -1,3 C
_ Min-Zeit 08:11 13:36 00:01 - 01:56 - - 08:11 09:31
Minimum _ -3,1 C 75 % 1012,7 hPa - 0,0 km/h (0 Bft) - - -5,1 C -6,2 C
_ Max-Zeit 23:51 09:06 12:46 00:01 14:51 - - 23:51 23:21
Maximum _ 1,9 C 88 % 1028,7 hPa 0,0 l/m 21,2 km/h
S-SW (4 Bft)
- - -0,3 C 1,6 C
Durchschnitt _ -0,6 C 83 % 1024,4 hPa #0,0 l/m 5,8 km/h (2 Bft) S-SO - -3,2 C -2,2 C
(c) by David Heller